Time;durP1;ratioP1;P1;durP2;ratioP2;P2;SDS_P1;SDS_P2;PMS_P1;PMS_P2;Temp;Humidity;BMP_temperature;BMP_pressure;BME280_temperature;BME280_humidity;BME280_pressure;Samples;Min_cycle;Max_cycle;Signal;HPM_P1;HPM_P2
2020/12/23 00:00:16;;;;;;;3.10;1.20;;;11.90;99.90;;;;;;4973869;28;20582;-75
2020/12/23 00:02:42;;;;;;;0.90;0.70;;;11.90;99.90;;;;;;4974849;28;20683;-78
2020/12/23 00:05:17;;;;;;;0.60;0.47;;;11.80;99.90;;;;;;4972151;28;20509;-79
2020/12/23 00:07:43;;;;;;;0.70;0.60;;;11.90;99.90;;;;;;4975543;28;20557;-79
2020/12/23 00:10:09;;;;;;;1.20;0.70;;;11.90;99.90;;;;;;4975382;28;20926;-78
2020/12/23 00:12:36;;;;;;;1.30;0.70;;;11.90;99.90;;;;;;4974079;28;20215;-79
2020/12/23 00:15:06;;;;;;;0.70;0.63;;;11.80;99.90;;;;;;4972797;28;20806;-79
2020/12/23 00:17:32;;;;;;;0.60;0.50;;;11.90;99.90;;;;;;4982506;28;20415;-77
2020/12/23 00:19:57;;;;;;;0.90;0.50;;;11.90;99.90;;;;;;4971133;28;20457;-78
2020/12/23 00:22:23;;;;;;;2.27;0.70;;;11.90;99.90;;;;;;4953806;28;20235;-80
2020/12/23 00:24:49;;;;;;;1.53;0.53;;;11.90;99.90;;;;;;4963009;28;20689;-81
2020/12/23 00:27:14;;;;;;;1.20;0.57;;;11.90;99.90;;;;;;4954501;28;20662;-80
2020/12/23 00:29:40;;;;;;;0.80;0.50;;;11.90;99.90;;;;;;4967789;28;20240;-78
2020/12/23 00:32:06;;;;;;;1.50;0.73;;;12.00;99.90;;;;;;4970275;28;20222;-75
2020/12/23 00:34:32;;;;;;;0.80;0.80;;;12.00;99.90;;;;;;4971249;28;20203;-77
2020/12/23 00:36:59;;;;;;;1.73;0.90;;;11.90;99.90;;;;;;4972382;28;20172;-81
2020/12/23 00:39:26;;;;;;;3.07;0.90;;;11.90;99.90;;;;;;4971279;28;20423;-78
2020/12/23 00:41:52;;;;;;;0.97;0.90;;;11.90;99.90;;;;;;4971108;28;20435;-80
2020/12/23 00:44:18;;;;;;;0.93;0.70;;;11.90;99.90;;;;;;4969340;28;20766;-78
2020/12/23 00:46:44;;;;;;;1.57;1.00;;;11.90;99.90;;;;;;4970539;28;20790;-78
2020/12/23 00:49:10;;;;;;;4.20;1.03;;;11.90;99.90;;;;;;4968099;28;21007;-78
2020/12/23 00:51:36;;;;;;;0.80;0.60;;;11.90;99.90;;;;;;4969124;28;20534;-78
2020/12/23 00:54:02;;;;;;;1.90;0.80;;;11.90;99.90;;;;;;4970935;28;20177;-76
2020/12/23 00:56:28;;;;;;;1.03;0.80;;;11.90;99.90;;;;;;4970943;28;20227;-78
2020/12/23 00:58:53;;;;;;;1.23;0.70;;;11.90;99.90;;;;;;4974836;28;20438;-80
2020/12/23 01:01:19;;;;;;;1.43;1.00;;;11.80;99.90;;;;;;4972945;28;20443;-76
2020/12/23 01:03:45;;;;;;;5.60;1.00;;;11.80;99.90;;;;;;4975074;28;20194;-79
2020/12/23 01:06:12;;;;;;;4.20;1.10;;;11.80;99.90;;;;;;4971455;28;20678;-76
2020/12/23 01:08:38;;;;;;;1.40;1.00;;;11.80;99.90;;;;;;4974227;28;20449;-77
2020/12/23 01:11:08;;;;;;;1.10;1.00;;;11.80;99.90;;;;;;4971948;28;20487;-81
2020/12/23 01:13:34;;;;;;;1.37;1.10;;;11.80;99.90;;;;;;4972944;28;20451;-81
2020/12/23 01:16:00;;;;;;;1.00;0.60;;;11.80;99.90;;;;;;4973332;28;20551;-81
2020/12/23 01:18:26;;;;;;;1.50;1.00;;;11.80;99.90;;;;;;4973436;28;20419;-78
2020/12/23 01:20:52;;;;;;;1.70;1.20;;;11.80;99.90;;;;;;4972341;28;20453;-81
2020/12/23 01:23:18;;;;;;;1.23;0.87;;;11.80;99.90;;;;;;4972285;28;20439;-77
2020/12/23 01:25:44;;;;;;;2.93;1.17;;;11.80;99.90;;;;;;4973245;28;20621;-76
2020/12/23 01:28:09;;;;;;;1.60;0.90;;;11.80;99.90;;;;;;4973600;28;20462;-79
2020/12/23 01:30:35;;;;;;;4.53;1.10;;;11.80;99.90;;;;;;4975287;28;20223;-79
2020/12/23 01:33:02;;;;;;;2.00;1.20;;;11.90;99.90;;;;;;4976616;28;20286;-80
2020/12/23 01:35:27;;;;;;;1.00;0.90;;;11.80;99.90;;;;;;4992329;28;20270;-77
2020/12/23 01:37:53;;;;;;;2.83;1.10;;;11.80;99.90;;;;;;4970587;28;20914;-76
2020/12/23 01:40:19;;;;;;;1.40;0.87;;;11.80;99.90;;;;;;4966203;28;20207;-79
2020/12/23 01:42:44;;;;;;;2.90;1.10;;;11.80;99.90;;;;;;4974032;28;20749;-76
2020/12/23 01:45:10;;;;;;;3.03;0.80;;;11.70;99.90;;;;;;4966307;28;20687;-77
2020/12/23 01:47:36;;;;;;;0.87;0.83;;;11.70;99.90;;;;;;4967357;28;20177;-77
2020/12/23 01:50:03;;;;;;;1.40;0.77;;;11.80;99.90;;;;;;4958812;28;20215;-78
2020/12/23 01:52:29;;;;;;;1.93;0.97;;;11.70;99.90;;;;;;4992004;28;20646;-77
2020/12/23 01:54:55;;;;;;;1.80;0.97;;;11.70;99.90;;;;;;4976143;28;20982;-76
2020/12/23 01:57:21;;;;;;;3.10;1.37;;;11.70;99.90;;;;;;4977550;28;20419;-77
2020/12/23 01:59:48;;;;;;;1.97;1.10;;;11.70;99.90;;;;;;4973671;28;20216;-76
2020/12/23 02:02:31;;;;;;;1.60;0.80;;;11.70;99.90;;;;;;4974278;28;20447;-76
2020/12/23 02:04:58;;;;;;;1.87;0.97;;;11.60;99.90;;;;;;4971435;28;20452;-79
2020/12/23 02:07:25;;;;;;;2.53;1.10;;;11.60;99.90;;;;;;4974218;28;20452;-78
2020/12/23 02:09:53;;;;;;;1.87;0.97;;;11.60;99.90;;;;;;4971317;28;20470;-79
2020/12/23 02:12:19;;;;;;;1.30;0.90;;;11.60;99.90;;;;;;4972728;28;20470;-78
2020/12/23 02:14:45;;;;;;;3.20;1.60;;;11.60;99.90;;;;;;4972025;28;20471;-78
2020/12/23 02:17:11;;;;;;;1.73;1.10;;;11.60;99.90;;;;;;4972913;28;20920;-78
2020/12/23 02:19:49;;;;;;;2.20;1.20;;;11.50;99.90;;;;;;4972915;28;20231;-78
2020/12/23 02:22:31;;;;;;;2.90;0.97;;;11.50;99.90;;;;;;4971310;28;20478;-77
2020/12/23 02:24:57;;;;;;;1.53;0.93;;;11.50;99.90;;;;;;4973556;28;20449;-81
2020/12/23 02:27:24;;;;;;;1.93;1.30;;;11.50;99.90;;;;;;4974410;28;20430;-79
2020/12/23 02:29:53;;;;;;;2.73;1.53;;;11.50;99.90;;;;;;4985975;28;20449;-81
2020/12/23 02:32:20;;;;;;;2.27;1.07;;;11.50;99.90;;;;;;4971118;28;20513;-77
2020/12/23 02:34:46;;;;;;;1.63;0.80;;;11.50;99.90;;;;;;4972313;28;20534;-78
2020/12/23 02:37:13;;;;;;;3.33;1.30;;;11.50;99.90;;;;;;4972067;28;20420;-78
2020/12/23 02:39:43;;;;;;;1.60;1.10;;;11.50;99.90;;;;;;4972124;28;20527;-76
2020/12/23 02:42:10;;;;;;;1.63;1.00;;;11.50;99.90;;;;;;4970768;28;20991;-80
2020/12/23 02:44:36;;;;;;;2.50;1.20;;;11.50;99.90;;;;;;4970254;28;20493;-79
2020/12/23 02:47:08;;;;;;;1.90;1.20;;;11.50;99.90;;;;;;4971373;28;20447;-80
2020/12/23 02:49:34;;;;;;;2.50;1.17;;;11.50;99.90;;;;;;4970740;28;20450;-77
2020/12/23 02:52:00;;;;;;;1.47;0.90;;;11.50;99.90;;;;;;4971877;28;20463;-78
2020/12/23 02:54:25;;;;;;;0.93;0.70;;;11.50;99.90;;;;;;4970462;28;20430;-78
2020/12/23 02:56:51;;;;;;;2.50;1.23;;;11.50;99.90;;;;;;4970825;28;20647;-80
2020/12/23 02:59:18;;;;;;;1.53;0.77;;;11.50;99.90;;;;;;4971940;28;20219;-74
2020/12/23 03:01:45;;;;;;;1.83;0.90;;;11.50;99.90;;;;;;4974017;28;20435;-82
2020/12/23 03:04:11;;;;;;;3.10;0.87;;;11.50;99.90;;;;;;4974147;28;20424;-82
2020/12/23 03:06:36;;;;;;;1.73;0.70;;;11.50;99.90;;;;;;4973907;28;20442;-78
2020/12/23 03:09:07;;;;;;;1.43;0.70;;;11.60;99.90;;;;;;4973381;28;20909;-79
2020/12/23 03:11:33;;;;;;;0.73;0.53;;;11.70;99.90;;;;;;4971769;28;20469;-81
2020/12/23 03:13:59;;;;;;;1.93;0.50;;;11.60;99.90;;;;;;4972708;28;20451;-84
2020/12/23 03:16:26;;;;;;;3.80;0.60;;;11.60;99.90;;;;;;4972139;28;20461;-84
2020/12/23 03:18:52;;;;;;;2.10;0.70;;;11.60;99.90;;;;;;4972435;28;20873;-83
2020/12/23 03:21:17;;;;;;;3.03;0.73;;;11.60;99.90;;;;;;4972768;28;20446;-81
2020/12/23 03:23:43;;;;;;;1.63;1.23;;;11.60;99.90;;;;;;4972120;28;20770;-84
2020/12/23 03:26:09;;;;;;;4.23;1.27;;;11.60;99.90;;;;;;4972609;28;20211;-82
2020/12/23 03:28:35;;;;;;;3.60;1.20;;;11.60;99.90;;;;;;4972174;28;20179;-82
2020/12/23 03:31:02;;;;;;;4.50;1.73;;;11.70;99.90;;;;;;4971863;28;20795;-85
2020/12/23 03:33:28;;;;;;;3.83;1.80;;;11.70;99.90;;;;;;4972914;28;20486;-82
2020/12/23 03:35:55;;;;;;;2.93;1.30;;;11.80;99.90;;;;;;4971691;28;20438;-85
2020/12/23 03:38:20;;;;;;;3.70;1.77;;;11.80;99.90;;;;;;4972106;28;20411;-85
2020/12/23 03:40:46;;;;;;;1.53;1.37;;;11.80;99.90;;;;;;4971418;28;20445;-84
2020/12/23 03:43:12;;;;;;;1.37;1.27;;;11.70;99.90;;;;;;4973554;28;20249;-81
2020/12/23 03:45:38;;;;;;;2.80;1.23;;;11.70;99.90;;;;;;4972864;28;20577;-83
2020/12/23 03:48:03;;;;;;;2.83;1.37;;;11.80;99.90;;;;;;4973193;28;20646;-79
2020/12/23 03:50:29;;;;;;;3.23;1.50;;;11.80;99.90;;;;;;4972610;28;20446;-83
2020/12/23 03:52:55;;;;;;;1.57;1.20;;;11.70;99.90;;;;;;4973351;28;20278;-82
2020/12/23 03:55:21;;;;;;;2.47;1.60;;;11.70;99.90;;;;;;4972605;28;20934;-85
2020/12/23 03:57:47;;;;;;;1.87;1.17;;;11.70;99.90;;;;;;4971865;28;20203;-85
2020/12/23 04:00:12;;;;;;;2.87;1.73;;;11.70;99.90;;;;;;4972656;28;20214;-84
2020/12/23 04:02:39;;;;;;;1.63;1.43;;;11.70;99.90;;;;;;4971931;28;20794;-83
2020/12/23 04:05:05;;;;;;;2.70;1.37;;;11.70;99.90;;;;;;4972428;28;20586;-82
2020/12/23 04:07:32;;;;;;;2.63;1.60;;;11.70;99.90;;;;;;4972879;28;20437;-82
2020/12/23 04:09:58;;;;;;;2.20;1.50;;;11.70;99.90;;;;;;4970926;28;20450;-82
2020/12/23 04:12:24;;;;;;;2.20;1.13;;;11.70;99.90;;;;;;4971500;28;20562;-82
2020/12/23 04:14:49;;;;;;;2.30;1.17;;;11.70;99.90;;;;;;4971269;28;20438;-84
2020/12/23 04:17:15;;;;;;;1.77;1.03;;;11.70;99.90;;;;;;4973110;28;20458;-85
2020/12/23 04:19:41;;;;;;;2.30;1.03;;;11.70;99.90;;;;;;4972274;28;20211;-84
2020/12/23 04:22:07;;;;;;;2.80;1.30;;;11.70;99.90;;;;;;4972730;28;20193;-82
2020/12/23 04:24:32;;;;;;;1.50;1.33;;;11.70;99.90;;;;;;4972669;28;20265;-84
2020/12/23 04:26:58;;;;;;;1.33;0.80;;;11.70;99.90;;;;;;4972640;28;20960;-84
2020/12/23 04:29:24;;;;;;;1.30;0.83;;;11.70;99.90;;;;;;4970850;28;20584;-84
2020/12/23 04:31:50;;;;;;;3.60;1.00;;;11.70;99.90;;;;;;4972665;28;20594;-83
2020/12/23 04:34:16;;;;;;;1.90;0.77;;;11.70;99.90;;;;;;4972146;28;20449;-83
2020/12/23 04:36:41;;;;;;;1.00;0.70;;;11.70;99.90;;;;;;4972329;28;20657;-79
2020/12/23 04:39:07;;;;;;;3.13;0.73;;;11.80;99.90;;;;;;4975261;28;20179;-83
2020/12/23 04:41:34;;;;;;;0.70;0.60;;;11.70;99.90;;;;;;4975012;28;20234;-81
2020/12/23 04:44:04;;;;;;;0.97;0.60;;;11.70;99.90;;;;;;4976146;28;20183;-80
2020/12/23 04:46:34;;;;;;;4.93;0.90;;;11.70;99.90;;;;;;4975414;28;20451;-79
2020/12/23 04:49:00;;;;;;;1.23;0.60;;;11.80;99.90;;;;;;4976330;28;20925;-81
2020/12/23 04:51:31;;;;;;;1.77;0.63;;;11.80;99.90;;;;;;4975916;28;20466;-83
2020/12/23 04:53:59;;;;;;;0.80;0.53;;;11.90;99.90;;;;;;4976224;28;20455;-82
2020/12/23 04:56:29;;;;;;;1.33;0.53;;;11.80;99.90;;;;;;4975081;28;21133;-80
2020/12/23 04:58:56;;;;;;;1.33;0.60;;;11.80;99.90;;;;;;4974690;28;20858;-81
2020/12/23 05:01:22;;;;;;;1.07;0.60;;;11.80;99.90;;;;;;4975066;28;20826;-83
2020/12/23 05:03:48;;;;;;;0.60;0.60;;;11.80;99.90;;;;;;4975716;28;20418;-83
2020/12/23 05:06:15;;;;;;;1.37;0.60;;;11.70;99.90;;;;;;4974562;28;20446;-80
2020/12/23 05:08:41;;;;;;;0.90;0.50;;;11.70;99.90;;;;;;4975093;28;20454;-81
2020/12/23 05:11:08;;;;;;;2.70;0.50;;;11.60;99.90;;;;;;4975835;28;20560;-81
2020/12/23 05:13:34;;;;;;;1.27;0.83;;;11.70;99.90;;;;;;4975071;28;20253;-83
2020/12/23 05:16:00;;;;;;;1.17;0.50;;;11.70;99.90;;;;;;4975187;28;20446;-78
2020/12/23 05:18:32;;;;;;;1.07;0.40;;;11.70;99.90;;;;;;4975575;28;20419;-80
2020/12/23 05:20:58;;;;;;;1.00;0.60;;;11.70;99.90;;;;;;4975065;28;20207;-79
2020/12/23 05:23:24;;;;;;;0.60;0.50;;;11.60;99.90;;;;;;4975095;28;20505;-80
2020/12/23 05:25:50;;;;;;;0.60;0.50;;;11.60;99.90;;;;;;4974835;28;20451;-79
2020/12/23 05:28:16;;;;;;;1.47;0.43;;;11.60;99.90;;;;;;4975944;28;20512;-84
2020/12/23 05:30:45;;;;;;;1.37;0.40;;;11.60;99.90;;;;;;4974892;28;20451;-78
2020/12/23 05:33:12;;;;;;;2.33;0.50;;;11.60;99.90;;;;;;4975625;28;20459;-78
2020/12/23 05:35:38;;;;;;;0.60;0.50;;;11.60;99.90;;;;;;4976070;28;20458;-77
2020/12/23 05:38:05;;;;;;;0.87;0.40;;;11.50;99.90;;;;;;4974510;28;20491;-77
2020/12/23 05:40:30;;;;;;;0.90;0.57;;;11.50;99.90;;;;;;4973502;28;20862;-78
2020/12/23 05:42:57;;;;;;;0.80;0.70;;;11.40;99.90;;;;;;4974881;28;20473;-82
2020/12/23 05:45:26;;;;;;;0.90;0.60;;;11.50;99.90;;;;;;4975885;28;20278;-82
2020/12/23 05:47:53;;;;;;;1.63;0.70;;;11.40;99.90;;;;;;4975765;28;20441;-79
2020/12/23 05:50:19;;;;;;;1.23;0.43;;;11.40;99.90;;;;;;4974236;28;20563;-78
2020/12/23 05:52:53;;;;;;;1.87;0.80;;;11.40;99.90;;;;;;4975340;28;20528;-77
2020/12/23 05:55:19;;;;;;;0.93;0.43;;;11.40;99.90;;;;;;4974366;28;20563;-81
2020/12/23 05:57:45;;;;;;;0.80;0.70;;;11.40;99.90;;;;;;4976173;28;20443;-79
2020/12/23 06:00:11;;;;;;;1.60;0.50;;;11.30;99.90;;;;;;4973978;28;20466;-80
2020/12/23 06:03:09;;;;;;;1.10;1.00;;;11.30;99.90;;;;;;4973889;28;20451;-76
2020/12/23 06:05:42;;;;;;;1.70;1.60;;;11.30;99.90;;;;;;4974818;28;20989;-77
2020/12/23 06:08:09;;;;;;;3.33;2.00;;;11.40;99.90;;;;;;4975731;28;20415;-78
2020/12/23 06:10:36;;;;;;;1.77;1.40;;;11.40;99.90;;;;;;4975234;28;20557;-78
2020/12/23 06:13:11;;;;;;;1.70;1.33;;;11.40;99.90;;;;;;4975255;28;20462;-80
2020/12/23 06:15:40;;;;;;;3.27;1.50;;;11.30;99.90;;;;;;4960365;28;20501;-76
2020/12/23 06:18:16;;;;;;;2.93;1.70;;;11.30;99.90;;;;;;4974367;28;20426;-81
2020/12/23 06:20:45;;;;;;;1.87;1.03;;;11.30;99.90;;;;;;4974087;28;20485;-79
2020/12/23 06:23:25;;;;;;;6.00;1.40;;;11.30;99.90;;;;;;4974181;28;20445;-77
2020/12/23 06:25:51;;;;;;;1.93;1.30;;;11.30;99.90;;;;;;4974498;28;20965;-80
2020/12/23 06:28:22;;;;;;;1.27;1.17;;;11.20;99.90;;;;;;4975032;28;20441;-79
2020/12/23 06:30:53;;;;;;;2.97;1.03;;;11.30;99.90;;;;;;4972629;28;20458;-80
2020/12/23 06:33:20;;;;;;;2.40;1.10;;;11.30;99.90;;;;;;4994734;28;20458;-80
2020/12/23 06:35:46;;;;;;;2.67;0.90;;;11.30;99.90;;;;;;4972961;28;21183;-79
2020/12/23 06:38:22;;;;;;;1.03;0.80;;;11.30;99.90;;;;;;4957303;28;20419;-81
2020/12/23 06:40:59;;;;;;;1.10;1.00;;;11.40;99.90;;;;;;4968430;28;20682;-78
2020/12/23 06:43:59;;;;;;;0.90;0.90;;;11.40;99.90;;;;;;4958837;28;20481;-77
2020/12/23 06:46:25;;;;;;;1.27;0.73;;;11.40;99.90;;;;;;4962103;28;20459;-79
2020/12/23 06:48:50;;;;;;;1.03;0.60;;;11.40;99.90;;;;;;4972795;28;20492;-80
2020/12/23 06:51:39;;;;;;;0.70;0.70;;;11.40;99.90;;;;;;4972824;28;20447;-78
2020/12/23 06:54:05;;;;;;;1.33;1.10;;;11.40;99.90;;;;;;4974220;28;20211;-78
2020/12/23 06:56:46;;;;;;;0.90;0.70;;;11.40;99.90;;;;;;4974066;28;20443;-78
2020/12/23 06:59:46;;;;;;;2.17;0.93;;;11.40;99.90;;;;;;4973477;28;20438;-80
2020/12/23 07:02:13;;;;;;;0.80;0.73;;;11.40;99.90;;;;;;4973984;28;20438;-80
2020/12/23 07:04:48;;;;;;;1.17;0.97;;;11.30;99.90;;;;;;4973750;28;20501;-78
2020/12/23 07:07:33;;;;;;;1.07;0.97;;;11.40;99.90;;;;;;4974280;28;20422;-81
2020/12/23 07:10:12;;;;;;;0.67;0.57;;;11.40;99.90;;;;;;4974068;28;20450;-77
2020/12/23 07:12:43;;;;;;;1.20;0.80;;;11.30;99.90;;;;;;4998580;28;20544;-78
2020/12/23 07:15:10;;;;;;;0.90;0.60;;;11.30;99.90;;;;;;4974362;28;20489;-78
2020/12/23 07:17:38;;;;;;;7.03;1.67;;;11.30;99.90;;;;;;4974412;28;20426;-78
2020/12/23 07:20:09;;;;;;;1.37;0.80;;;11.30;99.90;;;;;;4973593;28;20446;-80
2020/12/23 07:22:35;;;;;;;1.50;1.00;;;11.30;99.90;;;;;;4973186;28;20517;-78
2020/12/23 07:25:01;;;;;;;1.77;1.50;;;11.20;99.90;;;;;;4973958;28;20889;-81
2020/12/23 07:27:27;;;;;;;0.97;0.97;;;11.20;99.90;;;;;;4972977;28;20183;-77
2020/12/23 07:30:06;;;;;;;0.97;0.87;;;11.10;99.90;;;;;;4974498;28;20509;-78
2020/12/23 07:32:31;;;;;;;1.27;1.17;;;11.10;99.90;;;;;;4974605;28;20458;-77
2020/12/23 07:34:59;;;;;;;1.30;0.90;;;11.10;99.90;;;;;;4974511;28;20439;-77
2020/12/23 07:37:41;;;;;;;1.00;0.80;;;11.20;99.90;;;;;;4974214;28;20419;-77
2020/12/23 07:40:13;;;;;;;1.07;0.87;;;11.10;99.90;;;;;;4975348;28;20446;-77
2020/12/23 07:42:39;;;;;;;1.57;0.83;;;11.10;99.90;;;;;;5002645;28;20435;-76
2020/12/23 07:45:05;;;;;;;2.40;1.10;;;11.00;99.90;;;;;;4976775;28;20501;-76
2020/12/23 07:47:31;;;;;;;0.93;0.87;;;11.00;99.90;;;;;;4978290;28;21001;-77
2020/12/23 07:50:05;;;;;;;1.47;1.37;;;10.90;99.90;;;;;;4976473;28;20206;-79
2020/12/23 07:52:31;;;;;;;1.57;0.90;;;10.90;99.90;;;;;;4977272;28;20198;-79
2020/12/23 07:55:13;;;;;;;3.10;1.10;;;10.90;99.90;;;;;;4975139;28;20999;-77
2020/12/23 07:57:39;;;;;;;3.00;1.00;;;10.90;99.90;;;;;;4964586;28;20505;-78
2020/12/23 08:00:06;;;;;;;2.10;1.50;;;10.90;99.90;;;;;;4976898;28;20806;-78
2020/12/23 08:02:33;;;;;;;2.13;1.47;;;10.90;99.90;;;;;;4977168;28;20470;-78
2020/12/23 08:04:59;;;;;;;2.60;1.10;;;10.90;99.90;;;;;;4976294;28;20450;-76
2020/12/23 08:07:25;;;;;;;1.23;1.10;;;10.90;99.90;;;;;;4976842;28;20937;-77
2020/12/23 08:09:51;;;;;;;3.50;1.10;;;10.90;99.90;;;;;;4977379;28;20474;-78
2020/12/23 08:12:18;;;;;;;1.83;1.10;;;11.00;99.90;;;;;;4975995;28;20466;-79
2020/12/23 08:14:44;;;;;;;3.80;1.10;;;10.90;99.90;;;;;;4978015;28;20470;-78
2020/12/23 08:17:18;;;;;;;3.00;1.20;;;10.90;99.90;;;;;;4978392;28;20415;-79
2020/12/23 08:19:44;;;;;;;2.73;1.37;;;10.80;99.90;;;;;;4976384;28;20495;-79
2020/12/23 08:22:11;;;;;;;1.30;0.90;;;10.80;99.90;;;;;;4976235;28;20450;-78
2020/12/23 08:24:37;;;;;;;1.80;1.30;;;10.90;99.90;;;;;;4977640;28;20221;-78
2020/12/23 08:27:04;;;;;;;2.00;1.10;;;10.90;99.90;;;;;;4976727;28;20419;-80
2020/12/23 08:29:30;;;;;;;3.37;0.90;;;10.90;99.90;;;;;;4976585;28;20434;-79
2020/12/23 08:31:59;;;;;;;1.00;0.60;;;10.90;99.90;;;;;;4976550;28;20435;-76
2020/12/23 08:34:27;;;;;;;0.80;0.80;;;10.90;99.90;;;;;;4980304;28;20418;-81
2020/12/23 08:36:53;;;;;;;2.17;1.07;;;11.00;99.90;;;;;;4977491;28;20497;-77
2020/12/23 08:39:24;;;;;;;1.17;0.77;;;11.10;99.90;;;;;;4974440;28;20924;-78
2020/12/23 08:41:49;;;;;;;1.10;1.00;;;11.20;99.90;;;;;;4974633;28;20501;-77
2020/12/23 08:44:22;;;;;;;1.40;1.20;;;11.30;99.90;;;;;;4975638;28;20426;-79
2020/12/23 08:46:49;;;;;;;2.40;0.90;;;11.30;99.90;;;;;;4977817;28;20534;-77
2020/12/23 08:49:15;;;;;;;2.30;1.20;;;11.30;99.90;;;;;;4976169;28;20451;-76
2020/12/23 08:51:42;;;;;;;2.60;1.47;;;11.30;99.90;;;;;;4976542;28;20449;-78
2020/12/23 08:54:15;;;;;;;1.57;1.20;;;11.30;99.90;;;;;;4977399;28;20481;-78
2020/12/23 08:56:48;;;;;;;2.13;0.90;;;11.30;99.90;;;;;;4976936;28;20466;-77
2020/12/23 08:59:15;;;;;;;1.83;1.33;;;11.20;99.90;;;;;;4975026;28;20525;-77
2020/12/23 09:01:43;;;;;;;1.27;1.07;;;11.20;99.90;;;;;;4974591;28;20434;-80
2020/12/23 09:04:12;;;;;;;1.80;1.00;;;11.30;99.90;;;;;;4976491;28;20532;-79
2020/12/23 09:06:44;;;;;;;1.87;1.27;;;11.30;99.90;;;;;;4976526;28;20434;-78
2020/12/23 09:09:13;;;;;;;2.67;1.20;;;11.30;99.90;;;;;;4977762;28;20780;-81
2020/12/23 09:11:50;;;;;;;2.03;1.07;;;11.30;99.90;;;;;;4977477;28;20550;-80
2020/12/23 09:14:30;;;;;;;1.33;1.20;;;11.30;99.90;;;;;;4978786;28;20462;-77
2020/12/23 09:16:55;;;;;;;6.07;1.77;;;11.40;99.90;;;;;;4974345;28;20422;-78
2020/12/23 09:19:45;;;;;;;3.37;2.13;;;11.40;99.90;;;;;;4971733;28;20492;-79
2020/12/23 09:22:13;;;;;;;11.60;3.50;;;11.40;99.90;;;;;;4975665;28;20191;-77
2020/12/23 09:24:39;;;;;;;8.53;2.87;;;11.50;99.90;;;;;;4973444;28;20810;-77
2020/12/23 09:27:23;;;;;;;10.80;3.87;;;11.50;99.90;;;;;;4976482;28;20506;-80
2020/12/23 09:29:50;;;;;;;9.20;3.60;;;11.60;99.90;;;;;;4975104;28;20446;-80
2020/12/23 09:32:15;;;;;;;9.40;5.90;;;11.60;99.90;;;;;;4976466;28;20454;-78
2020/12/23 09:34:41;;;;;;;9.30;8.50;;;11.70;99.90;;;;;;4975821;28;20458;-79
2020/12/23 09:37:07;;;;;;;10.47;9.57;;;11.80;99.90;;;;;;4978659;28;20168;-78
2020/12/23 09:39:37;;;;;;;9.67;8.67;;;11.90;99.90;;;;;;4978231;28;20231;-78
2020/12/23 09:42:05;;;;;;;5.43;4.77;;;11.90;99.90;;;;;;4976651;28;20462;-78
2020/12/23 09:44:32;;;;;;;8.40;7.77;;;11.90;99.90;;;;;;4976393;28;20967;-79
2020/12/23 09:46:58;;;;;;;6.87;6.30;;;11.90;99.90;;;;;;4978713;28;20494;-79
2020/12/23 09:49:25;;;;;;;4.77;4.37;;;11.90;99.90;;;;;;4977605;28;20411;-78
2020/12/23 09:51:51;;;;;;;4.97;4.47;;;12.00;99.90;;;;;;4977047;28;20782;-77
2020/12/23 09:54:17;;;;;;;4.60;4.13;;;12.00;99.90;;;;;;4977095;28;20763;-82
2020/12/23 09:56:48;;;;;;;3.97;3.67;;;12.00;99.90;;;;;;4975806;28;20478;-77
2020/12/23 09:59:13;;;;;;;3.33;3.07;;;12.00;99.90;;;;;;4973848;28;20416;-77
2020/12/23 10:01:39;;;;;;;3.17;2.90;;;12.10;99.90;;;;;;4975341;28;20806;-81
2020/12/23 10:04:05;;;;;;;2.63;2.43;;;12.10;99.90;;;;;;4975556;28;20177;-77
2020/12/23 10:06:30;;;;;;;2.17;1.50;;;12.00;99.90;;;;;;4973987;28;20214;-80
2020/12/23 10:08:56;;;;;;;1.87;1.70;;;12.10;99.90;;;;;;4974183;28;20175;-79
2020/12/23 10:11:22;;;;;;;1.60;1.50;;;12.10;99.90;;;;;;4972049;28;20616;-77
2020/12/23 10:13:47;;;;;;;1.50;1.40;;;12.10;99.90;;;;;;4972856;28;20217;-78
2020/12/23 10:16:13;;;;;;;1.87;1.00;;;12.00;99.90;;;;;;4974316;28;20210;-77
2020/12/23 10:18:39;;;;;;;1.27;1.17;;;12.00;99.90;;;;;;4974173;28;20175;-79
2020/12/23 10:21:04;;;;;;;1.30;1.20;;;11.90;99.90;;;;;;4974674;28;20693;-81
2020/12/23 10:23:30;;;;;;;2.57;2.10;;;11.90;99.90;;;;;;4975701;28;20686;-78
2020/12/23 10:25:56;;;;;;;2.27;1.67;;;11.90;99.90;;;;;;4973586;28;20208;-77
2020/12/23 10:28:22;;;;;;;1.73;1.40;;;12.00;99.90;;;;;;4975030;28;20602;-78
2020/12/23 10:30:48;;;;;;;2.67;1.80;;;12.10;99.90;;;;;;4976948;28;20265;-79
2020/12/23 10:33:14;;;;;;;2.90;1.63;;;12.00;99.90;;;;;;4977820;28;20462;-79
2020/12/23 10:35:39;;;;;;;2.50;2.20;;;12.10;99.90;;;;;;4976410;28;20242;-77
2020/12/23 10:38:05;;;;;;;1.80;1.67;;;12.10;99.90;;;;;;4977352;28;20172;-77
2020/12/23 10:40:31;;;;;;;2.53;1.97;;;12.10;99.90;;;;;;4974657;28;20207;-79
2020/12/23 10:42:56;;;;;;;1.60;1.50;;;12.10;99.90;;;;;;4974482;28;20191;-76
2020/12/23 10:45:22;;;;;;;2.50;1.40;;;12.10;99.90;;;;;;4972927;28;20219;-77
2020/12/23 10:47:48;;;;;;;2.93;1.80;;;12.10;99.90;;;;;;4974599;28;20186;-78
2020/12/23 10:50:13;;;;;;;2.00;1.77;;;12.10;99.90;;;;;;4970391;28;20219;-84
2020/12/23 10:52:39;;;;;;;2.23;1.90;;;12.10;99.90;;;;;;4971183;28;20204;-83
2020/12/23 10:55:05;;;;;;;1.57;1.47;;;12.00;99.90;;;;;;4987135;28;20241;-84
2020/12/23 10:57:33;;;;;;;3.17;2.03;;;12.10;99.90;;;;;;4973143;28;20178;-83
2020/12/23 10:59:59;;;;;;;2.20;1.83;;;12.20;99.90;;;;;;4971403;28;20211;-77
2020/12/23 11:02:25;;;;;;;2.13;1.57;;;12.10;99.90;;;;;;4972260;28;21027;-81
2020/12/23 11:04:51;;;;;;;2.80;2.00;;;12.10;99.90;;;;;;4972969;28;20532;-82
2020/12/23 11:07:19;;;;;;;3.07;1.77;;;12.00;99.90;;;;;;4973284;28;20175;-79
2020/12/23 11:09:44;;;;;;;1.83;1.53;;;12.10;99.90;;;;;;4972630;28;20616;-82
2020/12/23 11:12:10;;;;;;;2.90;2.10;;;12.10;99.90;;;;;;4972813;28;20501;-83
2020/12/23 11:14:37;;;;;;;2.60;2.23;;;12.10;99.90;;;;;;4971857;28;20809;-83
2020/12/23 11:17:02;;;;;;;2.93;2.23;;;12.10;99.90;;;;;;4972744;28;20415;-83
2020/12/23 11:19:28;;;;;;;5.63;2.60;;;12.00;99.90;;;;;;4972623;28;20821;-83
2020/12/23 11:21:54;;;;;;;3.17;2.60;;;12.10;99.90;;;;;;4972379;28;20215;-84
2020/12/23 11:24:20;;;;;;;4.10;2.87;;;12.10;99.90;;;;;;4970117;28;20234;-83
2020/12/23 11:26:47;;;;;;;3.37;2.90;;;12.10;99.90;;;;;;4971119;28;20419;-84
2020/12/23 11:29:13;;;;;;;2.37;2.10;;;12.10;99.90;;;;;;4971926;28;20180;-83
2020/12/23 11:31:39;;;;;;;3.77;2.57;;;12.10;99.90;;;;;;4972924;28;20533;-80
2020/12/23 11:34:04;;;;;;;2.63;2.27;;;12.20;99.90;;;;;;4972786;28;21061;-82
2020/12/23 11:36:31;;;;;;;2.53;1.90;;;12.10;99.90;;;;;;4972496;28;20472;-83
2020/12/23 11:38:56;;;;;;;3.50;1.90;;;12.20;99.90;;;;;;4970565;28;20164;-85
2020/12/23 11:41:22;;;;;;;6.13;2.10;;;12.20;99.90;;;;;;4971854;28;20460;-84
2020/12/23 11:43:48;;;;;;;1.60;1.30;;;12.20;99.90;;;;;;4972984;28;20258;-84
2020/12/23 11:46:13;;;;;;;2.37;1.80;;;12.20;99.90;;;;;;4972273;28;20211;-86
2020/12/23 11:48:41;;;;;;;11.50;1.80;;;12.20;99.90;;;;;;4972193;28;20180;-84
2020/12/23 11:51:07;;;;;;;2.23;1.20;;;12.30;99.90;;;;;;4972013;28;20234;-83
2020/12/23 11:53:34;;;;;;;1.50;1.10;;;12.50;99.90;;;;;;4967939;28;20566;-84
2020/12/23 11:56:00;;;;;;;3.90;1.20;;;12.50;99.90;;;;;;4951308;28;20519;-84
2020/12/23 11:58:26;;;;;;;2.50;0.87;;;12.50;99.90;;;;;;4952837;28;20898;-83
2020/12/23 12:00:52;;;;;;;1.00;0.90;;;12.40;99.90;;;;;;4951887;28;20443;-85
2020/12/23 12:03:18;;;;;;;3.60;0.90;;;12.40;99.90;;;;;;4952123;28;20196;-85
2020/12/23 12:05:44;;;;;;;0.90;0.60;;;12.40;99.90;;;;;;4952148;28;20458;-85
2020/12/23 12:08:10;;;;;;;2.33;0.90;;;12.40;99.90;;;;;;4951980;29;20495;-85
2020/12/23 12:10:36;;;;;;;1.13;0.83;;;12.40;99.90;;;;;;4951700;28;20235;-86
2020/12/23 12:13:02;;;;;;;1.30;0.83;;;12.40;99.90;;;;;;4953015;28;20464;-86
2020/12/23 12:15:28;;;;;;;0.90;0.67;;;12.30;99.90;;;;;;4952957;28;20213;-85
2020/12/23 12:17:54;;;;;;;1.37;0.60;;;12.40;99.90;;;;;;4952166;28;20425;-84
2020/12/23 12:20:20;;;;;;;1.07;0.60;;;12.30;99.90;;;;;;4951416;28;20441;-85
2020/12/23 12:22:46;;;;;;;3.33;0.73;;;12.40;99.90;;;;;;4952797;28;20194;-83
2020/12/23 12:25:16;;;;;;;1.57;0.60;;;12.40;99.90;;;;;;4953061;28;20459;-84
2020/12/23 12:27:42;;;;;;;0.87;0.50;;;12.40;99.90;;;;;;4951999;28;20425;-85
2020/12/23 12:30:08;;;;;;;0.93;0.50;;;12.40;99.90;;;;;;4958074;28;20446;-80
2020/12/23 12:32:34;;;;;;;1.07;0.50;;;12.30;99.90;;;;;;4991986;28;20515;-80
2020/12/23 12:34:59;;;;;;;0.97;0.53;;;12.30;99.90;;;;;;4990457;28;20612;-85
2020/12/23 12:37:26;;;;;;;0.83;0.60;;;12.30;99.90;;;;;;4986397;28;20194;-86
2020/12/23 12:39:52;;;;;;;1.67;0.93;;;12.50;99.90;;;;;;4970792;28;20450;-84
2020/12/23 12:42:17;;;;;;;0.80;0.50;;;12.60;99.90;;;;;;4970190;28;20798;-84
2020/12/23 12:44:43;;;;;;;2.77;0.67;;;12.60;99.90;;;;;;4971161;28;20222;-83
2020/12/23 12:47:09;;;;;;;0.60;0.40;;;12.60;99.90;;;;;;4971461;28;20801;-87